sensor_id;sensor_type;location;lat;lon;timestamp;temperature;humidity
14397;DHT22;50653;47.810;13.022;2023-02-15T00:01:44;1.50;99.90
14397;DHT22;50653;47.810;13.022;2023-02-15T00:04:13;1.40;99.90
14397;DHT22;50653;47.810;13.022;2023-02-15T00:06:39;1.40;99.90
14397;DHT22;50653;47.810;13.022;2023-02-15T00:09:05;1.30;99.90
14397;DHT22;50653;47.810;13.022;2023-02-15T00:11:30;1.10;99.90
14397;DHT22;50653;47.810;13.022;2023-02-15T00:14:14;1.00;99.90
14397;DHT22;50653;47.810;13.022;2023-02-15T00:16:41;0.90;99.90
14397;DHT22;50653;47.810;13.022;2023-02-15T00:19:08;0.90;99.90
14397;DHT22;50653;47.810;13.022;2023-02-15T00:21:35;0.80;99.90
14397;DHT22;50653;47.810;13.022;2023-02-15T00:24:04;0.80;99.90
14397;DHT22;50653;47.810;13.022;2023-02-15T00:26:30;0.70;99.90
14397;DHT22;50653;47.810;13.022;2023-02-15T00:28:56;0.70;99.90
14397;DHT22;50653;47.810;13.022;2023-02-15T00:31:27;0.70;99.90
14397;DHT22;50653;47.810;13.022;2023-02-15T00:33:55;0.70;99.90
14397;DHT22;50653;47.810;13.022;2023-02-15T00:36:20;0.70;99.90
14397;DHT22;50653;47.810;13.022;2023-02-15T00:38:47;0.70;99.90
14397;DHT22;50653;47.810;13.022;2023-02-15T00:41:13;0.70;99.90
14397;DHT22;50653;47.810;13.022;2023-02-15T00:43:39;0.80;99.90
14397;DHT22;50653;47.810;13.022;2023-02-15T00:46:05;0.80;99.90
14397;DHT22;50653;47.810;13.022;2023-02-15T00:48:31;0.80;99.90
14397;DHT22;50653;47.810;13.022;2023-02-15T00:50:58;0.80;99.90
14397;DHT22;50653;47.810;13.022;2023-02-15T00:53:25;0.80;99.90
14397;DHT22;50653;47.810;13.022;2023-02-15T00:55:52;0.60;99.90
14397;DHT22;50653;47.810;13.022;2023-02-15T00:58:17;0.70;99.90
14397;DHT22;50653;47.810;13.022;2023-02-15T01:00:45;0.60;99.90
14397;DHT22;50653;47.810;13.022;2023-02-15T01:03:13;0.50;99.90
14397;DHT22;50653;47.810;13.022;2023-02-15T01:05:39;0.50;99.90
14397;DHT22;50653;47.810;13.022;2023-02-15T01:08:04;0.50;99.90
14397;DHT22;50653;47.810;13.022;2023-02-15T01:10:30;0.50;99.90
14397;DHT22;50653;47.810;13.022;2023-02-15T01:12:56;0.60;99.90
14397;DHT22;50653;47.810;13.022;2023-02-15T01:15:23;0.50;99.90
14397;DHT22;50653;47.810;13.022;2023-02-15T01:17:48;0.40;99.90
14397;DHT22;50653;47.810;13.022;2023-02-15T01:20:25;0.30;99.90
14397;DHT22;50653;47.810;13.022;2023-02-15T01:22:51;0.20;99.90
14397;DHT22;50653;47.810;13.022;2023-02-15T01:25:18;0.20;99.90
14397;DHT22;50653;47.810;13.022;2023-02-15T01:27:45;0.10;99.90
14397;DHT22;50653;47.810;13.022;2023-02-15T01:30:13;0.20;99.90
14397;DHT22;50653;47.810;13.022;2023-02-15T01:32:39;0.30;99.90
14397;DHT22;50653;47.810;13.022;2023-02-15T01:35:06;0.40;99.90
14397;DHT22;50653;47.810;13.022;2023-02-15T01:37:32;0.40;99.90
14397;DHT22;50653;47.810;13.022;2023-02-15T01:39:58;0.40;99.90
14397;DHT22;50653;47.810;13.022;2023-02-15T01:42:27;0.40;99.90
14397;DHT22;50653;47.810;13.022;2023-02-15T01:44:55;0.50;99.90
14397;DHT22;50653;47.810;13.022;2023-02-15T01:47:38;0.50;99.90
14397;DHT22;50653;47.810;13.022;2023-02-15T01:50:14;0.60;99.90
14397;DHT22;50653;47.810;13.022;2023-02-15T01:52:55;0.60;99.90
14397;DHT22;50653;47.810;13.022;2023-02-15T01:55:25;0.40;99.90
14397;DHT22;50653;47.810;13.022;2023-02-15T01:57:52;0.50;99.90
14397;DHT22;50653;47.810;13.022;2023-02-15T02:00:19;0.60;99.90
14397;DHT22;50653;47.810;13.022;2023-02-15T02:02:48;0.60;99.90
14397;DHT22;50653;47.810;13.022;2023-02-15T02:05:15;0.60;99.90
14397;DHT22;50653;47.810;13.022;2023-02-15T02:07:43;0.60;99.90
14397;DHT22;50653;47.810;13.022;2023-02-15T02:10:21;0.60;99.90
14397;DHT22;50653;47.810;13.022;2023-02-15T02:12:54;0.60;99.90
14397;DHT22;50653;47.810;13.022;2023-02-15T02:15:33;0.60;99.90
14397;DHT22;50653;47.810;13.022;2023-02-15T02:18:17;0.60;99.90
14397;DHT22;50653;47.810;13.022;2023-02-15T02:21:00;0.60;99.90
14397;DHT22;50653;47.810;13.022;2023-02-15T02:23:40;0.40;99.90
14397;DHT22;50653;47.810;13.022;2023-02-15T02:26:47;0.50;99.90
14397;DHT22;50653;47.810;13.022;2023-02-15T02:29:44;0.60;99.90
14397;DHT22;50653;47.810;13.022;2023-02-15T02:40:15;0.50;99.90
14397;DHT22;50653;47.810;13.022;2023-02-15T02:42:49;0.30;99.90
14397;DHT22;50653;47.810;13.022;2023-02-15T02:45:24;0.30;99.90
14397;DHT22;50653;47.810;13.022;2023-02-15T02:48:01;0.30;99.90
14397;DHT22;50653;47.810;13.022;2023-02-15T02:50:29;0.20;99.90
14397;DHT22;50653;47.810;13.022;2023-02-15T02:52:57;0.20;99.90
14397;DHT22;50653;47.810;13.022;2023-02-15T02:55:44;0.10;99.90
14397;DHT22;50653;47.810;13.022;2023-02-15T02:58:23;0.20;99.90
14397;DHT22;50653;47.810;13.022;2023-02-15T03:01:05;0.00;99.90
14397;DHT22;50653;47.810;13.022;2023-02-15T03:03:42;-0.10;99.90
14397;DHT22;50653;47.810;13.022;2023-02-15T03:06:17;-0.10;99.90
14397;DHT22;50653;47.810;13.022;2023-02-15T03:08:55;-0.20;99.90
14397;DHT22;50653;47.810;13.022;2023-02-15T03:11:22;-0.30;99.90
14397;DHT22;50653;47.810;13.022;2023-02-15T03:13:50;-0.30;99.90
14397;DHT22;50653;47.810;13.022;2023-02-15T03:16:17;-0.30;99.90
14397;DHT22;50653;47.810;13.022;2023-02-15T03:22:03;-0.30;99.90
14397;DHT22;50653;47.810;13.022;2023-02-15T03:24:47;-0.50;99.90
14397;DHT22;50653;47.810;13.022;2023-02-15T03:27:17;-0.70;99.90
14397;DHT22;50653;47.810;13.022;2023-02-15T03:29:48;-0.50;99.90
14397;DHT22;50653;47.810;13.022;2023-02-15T03:32:15;-0.50;99.90
14397;DHT22;50653;47.810;13.022;2023-02-15T03:34:43;-0.50;99.90
14397;DHT22;50653;47.810;13.022;2023-02-15T03:39:59;-0.40;99.90
14397;DHT22;50653;47.810;13.022;2023-02-15T03:42:56;-0.40;99.90
14397;DHT22;50653;47.810;13.022;2023-02-15T03:45:29;-0.20;99.90
14397;DHT22;50653;47.810;13.022;2023-02-15T03:47:57;-0.20;99.90
14397;DHT22;50653;47.810;13.022;2023-02-15T03:50:29;0.00;99.90
14397;DHT22;50653;47.810;13.022;2023-02-15T03:53:16;-0.10;99.90
14397;DHT22;50653;47.810;13.022;2023-02-15T03:55:47;0.10;99.90
14397;DHT22;50653;47.810;13.022;2023-02-15T03:58:13;0.00;99.90
14397;DHT22;50653;47.810;13.022;2023-02-15T04:01:05;-0.40;99.90
14397;DHT22;50653;47.810;13.022;2023-02-15T04:04:02;-0.60;99.90
14397;DHT22;50653;47.810;13.022;2023-02-15T04:06:28;-0.50;99.90
14397;DHT22;50653;47.810;13.022;2023-02-15T04:08:54;-0.30;99.90
14397;DHT22;50653;47.810;13.022;2023-02-15T04:11:38;-0.30;99.90
14397;DHT22;50653;47.810;13.022;2023-02-15T04:14:04;-0.20;99.90
14397;DHT22;50653;47.810;13.022;2023-02-15T04:16:49;-0.10;99.90
14397;DHT22;50653;47.810;13.022;2023-02-15T04:19:15;-0.10;99.90
14397;DHT22;50653;47.810;13.022;2023-02-15T04:21:59;0.00;99.90
14397;DHT22;50653;47.810;13.022;2023-02-15T04:24:43;0.00;99.90
14397;DHT22;50653;47.810;13.022;2023-02-15T04:27:27;0.10;99.90
14397;DHT22;50653;47.810;13.022;2023-02-15T04:29:53;0.20;99.90
14397;DHT22;50653;47.810;13.022;2023-02-15T04:32:18;0.20;99.90
14397;DHT22;50653;47.810;13.022;2023-02-15T04:34:44;0.20;99.90
14397;DHT22;50653;47.810;13.022;2023-02-15T04:37:09;0.20;99.90
14397;DHT22;50653;47.810;13.022;2023-02-15T04:39:35;0.10;99.90
14397;DHT22;50653;47.810;13.022;2023-02-15T04:42:01;0.00;99.90
14397;DHT22;50653;47.810;13.022;2023-02-15T04:44:27;0.00;99.90
14397;DHT22;50653;47.810;13.022;2023-02-15T04:46:52;-0.10;99.90
14397;DHT22;50653;47.810;13.022;2023-02-15T04:49:18;-0.20;99.90
14397;DHT22;50653;47.810;13.022;2023-02-15T04:51:43;-0.20;99.90
14397;DHT22;50653;47.810;13.022;2023-02-15T04:54:09;-0.20;99.90
14397;DHT22;50653;47.810;13.022;2023-02-15T04:56:35;-0.30;99.90
14397;DHT22;50653;47.810;13.022;2023-02-15T04:59:03;-0.20;99.90
14397;DHT22;50653;47.810;13.022;2023-02-15T05:01:28;-0.20;99.90
14397;DHT22;50653;47.810;13.022;2023-02-15T05:03:54;-0.30;99.90
14397;DHT22;50653;47.810;13.022;2023-02-15T05:06:20;-0.50;99.90
14397;DHT22;50653;47.810;13.022;2023-02-15T05:08:45;-0.50;99.90
14397;DHT22;50653;47.810;13.022;2023-02-15T05:11:11;-0.40;99.90
14397;DHT22;50653;47.810;13.022;2023-02-15T05:13:36;-0.40;99.90
14397;DHT22;50653;47.810;13.022;2023-02-15T05:16:02;-0.30;99.90
14397;DHT22;50653;47.810;13.022;2023-02-15T05:18:28;-0.40;99.90
14397;DHT22;50653;47.810;13.022;2023-02-15T05:20:53;-0.40;99.90
14397;DHT22;50653;47.810;13.022;2023-02-15T05:23:19;-0.40;99.90
14397;DHT22;50653;47.810;13.022;2023-02-15T05:25:48;-0.40;99.90
14397;DHT22;50653;47.810;13.022;2023-02-15T05:28:33;-0.30;99.90
14397;DHT22;50653;47.810;13.022;2023-02-15T05:33:28;-0.50;99.90
14397;DHT22;50653;47.810;13.022;2023-02-15T05:35:54;-0.40;99.90
14397;DHT22;50653;47.810;13.022;2023-02-15T05:38:19;-0.50;99.90
14397;DHT22;50653;47.810;13.022;2023-02-15T05:40:45;-0.50;99.90
14397;DHT22;50653;47.810;13.022;2023-02-15T05:43:11;-0.40;99.90
14397;DHT22;50653;47.810;13.022;2023-02-15T05:45:36;-0.60;99.90
14397;DHT22;50653;47.810;13.022;2023-02-15T05:48:02;-0.70;99.90
14397;DHT22;50653;47.810;13.022;2023-02-15T05:50:27;-0.80;99.90
14397;DHT22;50653;47.810;13.022;2023-02-15T05:52:53;-0.90;99.90
14397;DHT22;50653;47.810;13.022;2023-02-15T05:55:19;-0.50;99.90
14397;DHT22;50653;47.810;13.022;2023-02-15T05:57:45;-0.80;99.90
14397;DHT22;50653;47.810;13.022;2023-02-15T06:00:12;-0.60;99.90
14397;DHT22;50653;47.810;13.022;2023-02-15T06:02:38;-0.50;99.90
14397;DHT22;50653;47.810;13.022;2023-02-15T06:05:04;-0.80;99.90
14397;DHT22;50653;47.810;13.022;2023-02-15T06:07:31;-0.90;99.90
14397;DHT22;50653;47.810;13.022;2023-02-15T06:09:57;-0.90;99.90
14397;DHT22;50653;47.810;13.022;2023-02-15T06:12:22;-1.00;99.90
14397;DHT22;50653;47.810;13.022;2023-02-15T06:14:48;-1.00;99.90
14397;DHT22;50653;47.810;13.022;2023-02-15T06:17:13;-0.80;99.90
14397;DHT22;50653;47.810;13.022;2023-02-15T06:19:39;-0.60;99.90
14397;DHT22;50653;47.810;13.022;2023-02-15T06:22:05;-0.50;99.90
14397;DHT22;50653;47.810;13.022;2023-02-15T06:24:32;-0.50;99.90
14397;DHT22;50653;47.810;13.022;2023-02-15T06:26:57;-0.50;99.90
14397;DHT22;50653;47.810;13.022;2023-02-15T06:29:23;-0.50;99.90
14397;DHT22;50653;47.810;13.022;2023-02-15T06:31:49;-0.40;99.90
14397;DHT22;50653;47.810;13.022;2023-02-15T06:34:14;-0.40;99.90
14397;DHT22;50653;47.810;13.022;2023-02-15T06:36:40;-0.40;99.90
14397;DHT22;50653;47.810;13.022;2023-02-15T06:39:06;-0.40;99.90
14397;DHT22;50653;47.810;13.022;2023-02-15T06:41:31;-0.40;99.90
14397;DHT22;50653;47.810;13.022;2023-02-15T06:43:57;-0.40;99.90
14397;DHT22;50653;47.810;13.022;2023-02-15T06:46:23;-0.40;99.90
14397;DHT22;50653;47.810;13.022;2023-02-15T06:48:48;-0.40;99.90
14397;DHT22;50653;47.810;13.022;2023-02-15T06:51:14;-0.40;99.90
14397;DHT22;50653;47.810;13.022;2023-02-15T06:53:40;-0.40;99.90
14397;DHT22;50653;47.810;13.022;2023-02-15T06:56:09;-0.40;99.90
14397;DHT22;50653;47.810;13.022;2023-02-15T06:58:39;-0.30;99.90
14397;DHT22;50653;47.810;13.022;2023-02-15T07:01:05;-0.30;99.90
14397;DHT22;50653;47.810;13.022;2023-02-15T07:03:32;-0.30;99.90
14397;DHT22;50653;47.810;13.022;2023-02-15T07:05:59;-0.30;99.90
14397;DHT22;50653;47.810;13.022;2023-02-15T07:08:26;-0.30;99.90
14397;DHT22;50653;47.810;13.022;2023-02-15T07:10:52;-0.20;99.90
14397;DHT22;50653;47.810;13.022;2023-02-15T07:13:18;-0.20;99.90
14397;DHT22;50653;47.810;13.022;2023-02-15T07:15:44;-0.30;99.90
14397;DHT22;50653;47.810;13.022;2023-02-15T07:18:10;-0.30;99.90
14397;DHT22;50653;47.810;13.022;2023-02-15T07:20:37;-0.30;99.90
14397;DHT22;50653;47.810;13.022;2023-02-15T07:23:04;-0.20;99.90
14397;DHT22;50653;47.810;13.022;2023-02-15T07:25:30;-0.20;99.90
14397;DHT22;50653;47.810;13.022;2023-02-15T07:28:01;-0.20;99.90
14397;DHT22;50653;47.810;13.022;2023-02-15T07:30:27;-0.20;99.90
14397;DHT22;50653;47.810;13.022;2023-02-15T07:32:57;-0.10;99.90
14397;DHT22;50653;47.810;13.022;2023-02-15T07:38:14;0.00;99.90
14397;DHT22;50653;47.810;13.022;2023-02-15T07:40:40;0.00;99.90
14397;DHT22;50653;47.810;13.022;2023-02-15T07:43:05;0.10;99.90
14397;DHT22;50653;47.810;13.022;2023-02-15T07:45:31;0.20;99.90
14397;DHT22;50653;47.810;13.022;2023-02-15T07:47:56;0.00;99.90
14397;DHT22;50653;47.810;13.022;2023-02-15T07:50:22;0.10;99.90
14397;DHT22;50653;47.810;13.022;2023-02-15T07:52:48;0.10;99.90
14397;DHT22;50653;47.810;13.022;2023-02-15T07:55:13;0.10;99.90
14397;DHT22;50653;47.810;13.022;2023-02-15T07:57:47;0.10;99.90
14397;DHT22;50653;47.810;13.022;2023-02-15T08:00:14;0.00;99.90
14397;DHT22;50653;47.810;13.022;2023-02-15T08:02:41;0.10;99.90
14397;DHT22;50653;47.810;13.022;2023-02-15T08:05:07;0.20;99.90
14397;DHT22;50653;47.810;13.022;2023-02-15T08:07:33;0.20;99.90
14397;DHT22;50653;47.810;13.022;2023-02-15T08:09:59;0.20;99.90
14397;DHT22;50653;47.810;13.022;2023-02-15T08:12:28;0.30;99.90
14397;DHT22;50653;47.810;13.022;2023-02-15T08:14:54;0.40;99.90
14397;DHT22;50653;47.810;13.022;2023-02-15T08:17:19;0.40;99.90
14397;DHT22;50653;47.810;13.022;2023-02-15T08:19:45;0.40;99.90
14397;DHT22;50653;47.810;13.022;2023-02-15T08:22:13;0.40;99.90
14397;DHT22;50653;47.810;13.022;2023-02-15T08:24:40;0.30;99.90
14397;DHT22;50653;47.810;13.022;2023-02-15T08:27:08;0.40;99.90
14397;DHT22;50653;47.810;13.022;2023-02-15T08:29:35;0.40;99.90
14397;DHT22;50653;47.810;13.022;2023-02-15T08:32:04;0.40;99.90
14397;DHT22;50653;47.810;13.022;2023-02-15T08:34:32;0.40;99.90
14397;DHT22;50653;47.810;13.022;2023-02-15T08:36:58;0.50;99.90
14397;DHT22;50653;47.810;13.022;2023-02-15T08:39:24;0.50;99.90
14397;DHT22;50653;47.810;13.022;2023-02-15T08:41:49;0.60;99.90
14397;DHT22;50653;47.810;13.022;2023-02-15T08:44:17;0.60;99.90
14397;DHT22;50653;47.810;13.022;2023-02-15T08:46:44;0.60;99.90
14397;DHT22;50653;47.810;13.022;2023-02-15T08:49:19;0.50;99.90
14397;DHT22;50653;47.810;13.022;2023-02-15T08:51:46;0.60;99.90
14397;DHT22;50653;47.810;13.022;2023-02-15T08:54:18;0.70;99.90
14397;DHT22;50653;47.810;13.022;2023-02-15T08:56:44;0.70;99.90
14397;DHT22;50653;47.810;13.022;2023-02-15T08:59:19;0.80;99.90
14397;DHT22;50653;47.810;13.022;2023-02-15T09:01:46;0.80;99.90
14397;DHT22;50653;47.810;13.022;2023-02-15T09:04:13;1.00;99.90
14397;DHT22;50653;47.810;13.022;2023-02-15T09:06:41;1.00;99.90
14397;DHT22;50653;47.810;13.022;2023-02-15T09:09:10;0.80;99.90
14397;DHT22;50653;47.810;13.022;2023-02-15T09:11:38;0.80;99.90
14397;DHT22;50653;47.810;13.022;2023-02-15T09:14:15;0.80;99.90
14397;DHT22;50653;47.810;13.022;2023-02-15T09:16:43;0.70;99.90
14397;DHT22;50653;47.810;13.022;2023-02-15T09:19:14;0.80;99.90
14397;DHT22;50653;47.810;13.022;2023-02-15T09:21:40;0.90;99.90
14397;DHT22;50653;47.810;13.022;2023-02-15T09:24:09;0.90;99.90
14397;DHT22;50653;47.810;13.022;2023-02-15T09:26:37;0.90;99.90
14397;DHT22;50653;47.810;13.022;2023-02-15T09:29:06;0.90;99.90
14397;DHT22;50653;47.810;13.022;2023-02-15T09:31:43;1.00;99.90
14397;DHT22;50653;47.810;13.022;2023-02-15T09:34:10;1.20;99.90
14397;DHT22;50653;47.810;13.022;2023-02-15T09:36:38;1.10;99.90
14397;DHT22;50653;47.810;13.022;2023-02-15T09:42:02;1.20;99.90
14397;DHT22;50653;47.810;13.022;2023-02-15T09:58:02;1.50;99.90
14397;DHT22;50653;47.810;13.022;2023-02-15T10:06:22;1.60;99.90
14397;DHT22;50653;47.810;13.022;2023-02-15T10:14:25;1.60;99.90
14397;DHT22;50653;47.810;13.022;2023-02-15T10:17:19;1.80;99.90
14397;DHT22;50653;47.810;13.022;2023-02-15T10:28:40;1.90;99.90
14397;DHT22;50653;47.810;13.022;2023-02-15T10:31:25;2.00;99.90
14397;DHT22;50653;47.810;13.022;2023-02-15T10:50:48;2.40;99.90
14397;DHT22;50653;47.810;13.022;2023-02-15T10:56:12;2.50;99.90
14397;DHT22;50653;47.810;13.022;2023-02-15T11:04:20;2.70;99.90
14397;DHT22;50653;47.810;13.022;2023-02-15T11:06:56;2.60;99.90
14397;DHT22;50653;47.810;13.022;2023-02-15T11:09:25;2.70;99.90
14397;DHT22;50653;47.810;13.022;2023-02-15T11:11:56;2.70;99.90
14397;DHT22;50653;47.810;13.022;2023-02-15T11:14:37;2.80;99.90
14397;DHT22;50653;47.810;13.022;2023-02-15T11:17:12;2.90;99.90
14397;DHT22;50653;47.810;13.022;2023-02-15T11:20:15;3.00;99.90
14397;DHT22;50653;47.810;13.022;2023-02-15T11:22:42;3.00;99.90
14397;DHT22;50653;47.810;13.022;2023-02-15T11:25:20;3.00;99.90
14397;DHT22;50653;47.810;13.022;2023-02-15T11:27:48;3.00;99.90
14397;DHT22;50653;47.810;13.022;2023-02-15T11:30:19;3.00;99.90
14397;DHT22;50653;47.810;13.022;2023-02-15T11:32:47;3.10;99.90
14397;DHT22;50653;47.810;13.022;2023-02-15T11:35:27;3.10;99.90
14397;DHT22;50653;47.810;13.022;2023-02-15T11:40:30;3.40;99.90
14397;DHT22;50653;47.810;13.022;2023-02-15T11:43:05;3.40;99.90
14397;DHT22;50653;47.810;13.022;2023-02-15T11:45:33;3.40;99.90
14397;DHT22;50653;47.810;13.022;2023-02-15T11:48:00;3.50;99.90
14397;DHT22;50653;47.810;13.022;2023-02-15T11:50:29;3.60;99.90
14397;DHT22;50653;47.810;13.022;2023-02-15T11:53:20;3.60;99.90
14397;DHT22;50653;47.810;13.022;2023-02-15T11:55:53;3.70;99.90
14397;DHT22;50653;47.810;13.022;2023-02-15T11:58:42;3.80;99.90
14397;DHT22;50653;47.810;13.022;2023-02-15T12:03:55;3.80;99.90
14397;DHT22;50653;47.810;13.022;2023-02-15T12:06:33;3.90;99.90
14397;DHT22;50653;47.810;13.022;2023-02-15T12:09:20;3.80;99.90
14397;DHT22;50653;47.810;13.022;2023-02-15T12:11:47;3.90;99.90
14397;DHT22;50653;47.810;13.022;2023-02-15T12:14:13;4.00;99.90
14397;DHT22;50653;47.810;13.022;2023-02-15T12:16:43;4.00;99.90
14397;DHT22;50653;47.810;13.022;2023-02-15T12:19:29;4.10;99.90
14397;DHT22;50653;47.810;13.022;2023-02-15T12:21:57;4.10;99.90
14397;DHT22;50653;47.810;13.022;2023-02-15T12:24:27;4.20;99.90
14397;DHT22;50653;47.810;13.022;2023-02-15T12:29:32;4.40;99.90
14397;DHT22;50653;47.810;13.022;2023-02-15T12:32:01;4.40;99.90
14397;DHT22;50653;47.810;13.022;2023-02-15T12:34:31;4.30;99.90
14397;DHT22;50653;47.810;13.022;2023-02-15T12:37:01;4.50;99.90
14397;DHT22;50653;47.810;13.022;2023-02-15T12:39:31;4.40;99.90
14397;DHT22;50653;47.810;13.022;2023-02-15T12:42:14;4.40;99.90
14397;DHT22;50653;47.810;13.022;2023-02-15T12:45:03;4.50;99.90
14397;DHT22;50653;47.810;13.022;2023-02-15T12:47:30;4.60;99.90
14397;DHT22;50653;47.810;13.022;2023-02-15T12:50:14;4.60;99.90
14397;DHT22;50653;47.810;13.022;2023-02-15T12:52:48;4.70;99.90
14397;DHT22;50653;47.810;13.022;2023-02-15T12:55:24;4.70;99.90
14397;DHT22;50653;47.810;13.022;2023-02-15T12:58:18;4.70;99.90
14397;DHT22;50653;47.810;13.022;2023-02-15T13:00:45;4.80;99.90
14397;DHT22;50653;47.810;13.022;2023-02-15T13:03:19;5.00;99.90
14397;DHT22;50653;47.810;13.022;2023-02-15T13:05:46;4.90;99.90
14397;DHT22;50653;47.810;13.022;2023-02-15T13:08:28;5.00;99.90
14397;DHT22;50653;47.810;13.022;2023-02-15T13:11:02;5.10;99.90
14397;DHT22;50653;47.810;13.022;2023-02-15T13:13:31;5.20;99.90
14397;DHT22;50653;47.810;13.022;2023-02-15T13:16:05;5.40;99.90
14397;DHT22;50653;47.810;13.022;2023-02-15T13:18:38;5.20;99.90
14397;DHT22;50653;47.810;13.022;2023-02-15T13:21:14;5.30;99.90
14397;DHT22;50653;47.810;13.022;2023-02-15T13:23:51;5.20;99.90
14397;DHT22;50653;47.810;13.022;2023-02-15T13:26:20;5.40;99.90
14397;DHT22;50653;47.810;13.022;2023-02-15T13:28:53;5.50;99.90
14397;DHT22;50653;47.810;13.022;2023-02-15T13:31:22;5.40;99.90
14397;DHT22;50653;47.810;13.022;2023-02-15T13:34:12;5.40;99.90
14397;DHT22;50653;47.810;13.022;2023-02-15T13:37:21;5.50;99.90
14397;DHT22;50653;47.810;13.022;2023-02-15T13:40:06;5.70;99.90
14397;DHT22;50653;47.810;13.022;2023-02-15T13:42:44;5.70;99.90
14397;DHT22;50653;47.810;13.022;2023-02-15T13:45:29;5.60;99.90
14397;DHT22;50653;47.810;13.022;2023-02-15T13:51:01;5.80;99.90
14397;DHT22;50653;47.810;13.022;2023-02-15T13:56:12;5.90;99.90
14397;DHT22;50653;47.810;13.022;2023-02-15T14:07:16;6.00;99.90
14397;DHT22;50653;47.810;13.022;2023-02-15T14:12:43;6.40;99.90
14397;DHT22;50653;47.810;13.022;2023-02-15T14:21:09;6.30;99.90
14397;DHT22;50653;47.810;13.022;2023-02-15T14:24:00;6.30;99.90
14397;DHT22;50653;47.810;13.022;2023-02-15T14:26:35;6.40;99.90
14397;DHT22;50653;47.810;13.022;2023-02-15T14:29:41;6.30;99.90
14397;DHT22;50653;47.810;13.022;2023-02-15T14:32:23;6.40;99.90
14397;DHT22;50653;47.810;13.022;2023-02-15T14:34:59;6.50;99.90
14397;DHT22;50653;47.810;13.022;2023-02-15T14:37:58;6.50;99.90
14397;DHT22;50653;47.810;13.022;2023-02-15T14:51:04;6.60;99.90
14397;DHT22;50653;47.810;13.022;2023-02-15T14:59:12;6.40;99.90
14397;DHT22;50653;47.810;13.022;2023-02-15T15:01:40;6.40;99.90
14397;DHT22;50653;47.810;13.022;2023-02-15T15:04:12;6.40;99.90
14397;DHT22;50653;47.810;13.022;2023-02-15T15:06:41;6.40;99.90
14397;DHT22;50653;47.810;13.022;2023-02-15T15:09:14;6.50;99.90
14397;DHT22;50653;47.810;13.022;2023-02-15T15:11:49;6.50;99.90
14397;DHT22;50653;47.810;13.022;2023-02-15T15:17:05;6.40;99.90
14397;DHT22;50653;47.810;13.022;2023-02-15T15:22:22;6.50;99.90
14397;DHT22;50653;47.810;13.022;2023-02-15T15:27:58;6.50;99.90
14397;DHT22;50653;47.810;13.022;2023-02-15T15:35:35;6.20;99.90
14397;DHT22;50653;47.810;13.022;2023-02-15T15:48:37;6.20;99.90
14397;DHT22;50653;47.810;13.022;2023-02-15T15:51:19;6.00;99.90
14397;DHT22;50653;47.810;13.022;2023-02-15T15:53:48;5.90;99.90
14397;DHT22;50653;47.810;13.022;2023-02-15T15:56:28;5.70;99.90
14397;DHT22;50653;47.810;13.022;2023-02-15T15:59:03;5.70;99.90
14397;DHT22;50653;47.810;13.022;2023-02-15T16:01:52;5.70;99.90
14397;DHT22;50653;47.810;13.022;2023-02-15T16:04:26;5.60;99.90
14397;DHT22;50653;47.810;13.022;2023-02-15T16:06:52;5.50;99.90
14397;DHT22;50653;47.810;13.022;2023-02-15T16:09:24;5.30;99.90
14397;DHT22;50653;47.810;13.022;2023-02-15T16:16:26;5.30;99.90
14397;DHT22;50653;47.810;13.022;2023-02-15T16:18:55;5.20;99.90
14397;DHT22;50653;47.810;13.022;2023-02-15T16:21:31;5.20;99.90
14397;DHT22;50653;47.810;13.022;2023-02-15T16:29:53;5.00;99.90
14397;DHT22;50653;47.810;13.022;2023-02-15T16:32:25;5.00;99.90
14397;DHT22;50653;47.810;13.022;2023-02-15T16:37:20;4.90;99.90
14397;DHT22;50653;47.810;13.022;2023-02-15T16:39:51;4.80;99.90
14397;DHT22;50653;47.810;13.022;2023-02-15T16:42:18;4.70;99.90
14397;DHT22;50653;47.810;13.022;2023-02-15T16:44:45;4.50;99.90
14397;DHT22;50653;47.810;13.022;2023-02-15T16:47:23;4.30;99.90
14397;DHT22;50653;47.810;13.022;2023-02-15T16:49:52;4.30;99.90
14397;DHT22;50653;47.810;13.022;2023-02-15T16:52:25;4.30;99.90
14397;DHT22;50653;47.810;13.022;2023-02-15T16:54:58;4.20;99.90
14397;DHT22;50653;47.810;13.022;2023-02-15T16:57:36;4.30;99.90
14397;DHT22;50653;47.810;13.022;2023-02-15T17:00:17;4.30;99.90
14397;DHT22;50653;47.810;13.022;2023-02-15T17:05:47;4.00;99.90
14397;DHT22;50653;47.810;13.022;2023-02-15T17:13:32;4.00;99.90
14397;DHT22;50653;47.810;13.022;2023-02-15T17:18:46;4.10;99.90
14397;DHT22;50653;47.810;13.022;2023-02-15T17:21:19;4.10;99.90
14397;DHT22;50653;47.810;13.022;2023-02-15T17:23:48;4.20;99.90
14397;DHT22;50653;47.810;13.022;2023-02-15T17:28:50;4.00;99.90
14397;DHT22;50653;47.810;13.022;2023-02-15T17:31:17;4.00;99.90
14397;DHT22;50653;47.810;13.022;2023-02-15T17:33:44;3.90;99.90
14397;DHT22;50653;47.810;13.022;2023-02-15T17:36:16;3.80;99.90
14397;DHT22;50653;47.810;13.022;2023-02-15T17:39:06;3.80;99.90
14397;DHT22;50653;47.810;13.022;2023-02-15T17:41:43;3.60;99.90
14397;DHT22;50653;47.810;13.022;2023-02-15T17:44:09;3.70;99.90
14397;DHT22;50653;47.810;13.022;2023-02-15T17:46:39;3.70;99.90
14397;DHT22;50653;47.810;13.022;2023-02-15T17:49:05;3.70;99.90
14397;DHT22;50653;47.810;13.022;2023-02-15T17:51:34;3.60;99.90
14397;DHT22;50653;47.810;13.022;2023-02-15T18:11:23;3.30;99.90
14397;DHT22;50653;47.810;13.022;2023-02-15T18:14:11;3.30;99.90
14397;DHT22;50653;47.810;13.022;2023-02-15T18:16:41;3.30;99.90
14397;DHT22;50653;47.810;13.022;2023-02-15T18:19:17;3.00;99.90
14397;DHT22;50653;47.810;13.022;2023-02-15T18:21:44;2.80;99.90
14397;DHT22;50653;47.810;13.022;2023-02-15T18:24:17;2.30;99.90
14397;DHT22;50653;47.810;13.022;2023-02-15T18:26:43;2.00;99.90
14397;DHT22;50653;47.810;13.022;2023-02-15T18:29:09;2.10;99.90
14397;DHT22;50653;47.810;13.022;2023-02-15T18:31:35;2.10;99.90
14397;DHT22;50653;47.810;13.022;2023-02-15T18:34:00;2.30;99.90
14397;DHT22;50653;47.810;13.022;2023-02-15T18:38:53;1.70;99.90
14397;DHT22;50653;47.810;13.022;2023-02-15T18:41:19;1.70;99.90
14397;DHT22;50653;47.810;13.022;2023-02-15T18:43:45;1.90;99.90
14397;DHT22;50653;47.810;13.022;2023-02-15T18:46:13;2.00;99.90
14397;DHT22;50653;47.810;13.022;2023-02-15T18:48:39;1.90;99.90
14397;DHT22;50653;47.810;13.022;2023-02-15T18:51:07;1.90;99.90
14397;DHT22;50653;47.810;13.022;2023-02-15T18:53:39;1.60;99.90
14397;DHT22;50653;47.810;13.022;2023-02-15T18:56:05;1.50;99.90
14397;DHT22;50653;47.810;13.022;2023-02-15T18:58:30;1.50;99.90
14397;DHT22;50653;47.810;13.022;2023-02-15T19:00:56;1.10;99.90
14397;DHT22;50653;47.810;13.022;2023-02-15T19:03:24;0.90;99.90
14397;DHT22;50653;47.810;13.022;2023-02-15T19:05:50;0.60;99.90
14397;DHT22;50653;47.810;13.022;2023-02-15T19:08:18;0.80;99.90
14397;DHT22;50653;47.810;13.022;2023-02-15T19:10:47;1.10;99.90